sensor_id;sensor_type;location;lat;lon;timestamp;P1;durP1;ratioP1;P2;durP2;ratioP2
26536;SDS011;14204;51.262;5.488;2022-12-18T00:01:35;85.28;;;33.55;;
26536;SDS011;14204;51.262;5.488;2022-12-18T00:04:03;77.53;;;31.58;;
26536;SDS011;14204;51.262;5.488;2022-12-18T00:06:30;80.50;;;33.42;;
26536;SDS011;14204;51.262;5.488;2022-12-18T00:08:58;74.50;;;33.00;;
26536;SDS011;14204;51.262;5.488;2022-12-18T00:11:26;79.35;;;31.50;;
26536;SDS011;14204;51.262;5.488;2022-12-18T00:13:53;78.15;;;31.63;;
26536;SDS011;14204;51.262;5.488;2022-12-18T00:16:21;82.47;;;34.03;;
26536;SDS011;14204;51.262;5.488;2022-12-18T00:18:48;80.00;;;32.65;;
26536;SDS011;14204;51.262;5.488;2022-12-18T00:21:16;79.15;;;31.00;;
26536;SDS011;14204;51.262;5.488;2022-12-18T00:23:42;76.13;;;31.65;;
26536;SDS011;14204;51.262;5.488;2022-12-18T00:26:13;79.30;;;31.55;;
26536;SDS011;14204;51.262;5.488;2022-12-18T00:28:41;75.00;;;32.67;;
26536;SDS011;14204;51.262;5.488;2022-12-18T00:31:07;72.60;;;31.08;;
26536;SDS011;14204;51.262;5.488;2022-12-18T00:33:35;77.05;;;31.25;;
26536;SDS011;14204;51.262;5.488;2022-12-18T00:36:02;66.15;;;29.45;;
26536;SDS011;14204;51.262;5.488;2022-12-18T00:38:42;77.18;;;29.55;;
26536;SDS011;14204;51.262;5.488;2022-12-18T00:41:09;81.72;;;32.42;;
26536;SDS011;14204;51.262;5.488;2022-12-18T00:43:36;70.45;;;30.38;;
26536;SDS011;14204;51.262;5.488;2022-12-18T00:46:02;74.78;;;29.50;;
26536;SDS011;14204;51.262;5.488;2022-12-18T00:48:29;76.70;;;30.90;;
26536;SDS011;14204;51.262;5.488;2022-12-18T00:50:56;75.15;;;30.23;;
26536;SDS011;14204;51.262;5.488;2022-12-18T00:53:21;71.53;;;29.48;;
26536;SDS011;14204;51.262;5.488;2022-12-18T00:55:47;76.95;;;29.40;;
26536;SDS011;14204;51.262;5.488;2022-12-18T00:58:13;69.85;;;29.75;;
26536;SDS011;14204;51.262;5.488;2022-12-18T01:00:40;71.32;;;28.23;;
26536;SDS011;14204;51.262;5.488;2022-12-18T01:03:06;71.75;;;30.25;;
26536;SDS011;14204;51.262;5.488;2022-12-18T01:05:32;80.97;;;32.47;;
26536;SDS011;14204;51.262;5.488;2022-12-18T01:07:58;71.82;;;28.90;;
26536;SDS011;14204;51.262;5.488;2022-12-18T01:10:24;72.72;;;29.05;;
26536;SDS011;14204;51.262;5.488;2022-12-18T01:12:50;74.50;;;30.00;;
26536;SDS011;14204;51.262;5.488;2022-12-18T01:15:16;69.90;;;29.13;;
26536;SDS011;14204;51.262;5.488;2022-12-18T01:17:41;77.38;;;30.08;;
26536;SDS011;14204;51.262;5.488;2022-12-18T01:20:08;73.00;;;30.73;;
26536;SDS011;14204;51.262;5.488;2022-12-18T01:22:35;67.07;;;27.83;;
26536;SDS011;14204;51.262;5.488;2022-12-18T01:25:01;70.88;;;28.35;;
26536;SDS011;14204;51.262;5.488;2022-12-18T01:27:28;69.18;;;27.45;;
26536;SDS011;14204;51.262;5.488;2022-12-18T01:29:53;67.43;;;25.77;;
26536;SDS011;14204;51.262;5.488;2022-12-18T01:32:19;67.78;;;27.17;;
26536;SDS011;14204;51.262;5.488;2022-12-18T01:34:45;69.63;;;27.80;;
26536;SDS011;14204;51.262;5.488;2022-12-18T01:37:11;70.72;;;28.67;;
26536;SDS011;14204;51.262;5.488;2022-12-18T01:39:36;69.18;;;27.42;;
26536;SDS011;14204;51.262;5.488;2022-12-18T01:42:02;70.35;;;27.58;;
26536;SDS011;14204;51.262;5.488;2022-12-18T01:49:58;67.97;;;26.83;;
26536;SDS011;14204;51.262;5.488;2022-12-18T01:52:27;61.03;;;26.13;;
26536;SDS011;14204;51.262;5.488;2022-12-18T01:54:55;64.75;;;26.30;;
26536;SDS011;14204;51.262;5.488;2022-12-18T01:57:22;64.25;;;25.88;;
26536;SDS011;14204;51.262;5.488;2022-12-18T01:59:51;62.95;;;25.63;;
26536;SDS011;14204;51.262;5.488;2022-12-18T02:02:18;75.90;;;24.88;;
26536;SDS011;14204;51.262;5.488;2022-12-18T02:04:45;62.67;;;25.08;;
26536;SDS011;14204;51.262;5.488;2022-12-18T02:07:14;53.53;;;24.70;;
26536;SDS011;14204;51.262;5.488;2022-12-18T02:10:13;59.72;;;22.83;;
26536;SDS011;14204;51.262;5.488;2022-12-18T02:12:53;55.83;;;21.80;;
26536;SDS011;14204;51.262;5.488;2022-12-18T02:18:33;51.40;;;22.80;;
26536;SDS011;14204;51.262;5.488;2022-12-18T02:21:15;57.63;;;24.30;;
26536;SDS011;14204;51.262;5.488;2022-12-18T02:26:50;56.08;;;21.67;;
26536;SDS011;14204;51.262;5.488;2022-12-18T02:29:22;56.95;;;22.38;;
26536;SDS011;14204;51.262;5.488;2022-12-18T02:31:53;58.25;;;22.85;;
26536;SDS011;14204;51.262;5.488;2022-12-18T02:34:24;53.90;;;22.13;;
26536;SDS011;14204;51.262;5.488;2022-12-18T02:36:53;51.35;;;21.75;;
26536;SDS011;14204;51.262;5.488;2022-12-18T02:39:19;49.30;;;21.80;;
26536;SDS011;14204;51.262;5.488;2022-12-18T02:41:47;50.85;;;21.50;;
26536;SDS011;14204;51.262;5.488;2022-12-18T02:44:13;49.72;;;22.20;;
26536;SDS011;14204;51.262;5.488;2022-12-18T02:46:40;53.78;;;21.73;;
26536;SDS011;14204;51.262;5.488;2022-12-18T02:51:53;50.85;;;21.15;;
26536;SDS011;14204;51.262;5.488;2022-12-18T02:54:31;59.03;;;23.33;;
26536;SDS011;14204;51.262;5.488;2022-12-18T03:02:29;47.05;;;21.42;;
26536;SDS011;14204;51.262;5.488;2022-12-18T03:05:10;50.92;;;22.38;;
26536;SDS011;14204;51.262;5.488;2022-12-18T03:07:42;46.72;;;21.83;;
26536;SDS011;14204;51.262;5.488;2022-12-18T03:10:29;47.47;;;22.85;;
26536;SDS011;14204;51.262;5.488;2022-12-18T03:13:04;51.63;;;22.40;;
26536;SDS011;14204;51.262;5.488;2022-12-18T03:15:52;51.25;;;22.58;;
26536;SDS011;14204;51.262;5.488;2022-12-18T03:18:23;52.75;;;22.08;;
26536;SDS011;14204;51.262;5.488;2022-12-18T03:20:55;52.97;;;22.40;;
26536;SDS011;14204;51.262;5.488;2022-12-18T03:23:27;46.75;;;22.75;;
26536;SDS011;14204;51.262;5.488;2022-12-18T03:25:57;51.00;;;22.02;;
26536;SDS011;14204;51.262;5.488;2022-12-18T03:28:26;50.50;;;22.85;;
26536;SDS011;14204;51.262;5.488;2022-12-18T03:30:57;54.08;;;23.73;;
26536;SDS011;14204;51.262;5.488;2022-12-18T03:33:34;48.50;;;22.15;;
26536;SDS011;14204;51.262;5.488;2022-12-18T03:36:18;47.33;;;21.73;;
26536;SDS011;14204;51.262;5.488;2022-12-18T03:38:43;48.80;;;20.13;;
26536;SDS011;14204;51.262;5.488;2022-12-18T03:44:02;51.00;;;22.25;;
26536;SDS011;14204;51.262;5.488;2022-12-18T03:46:33;52.17;;;21.75;;
26536;SDS011;14204;51.262;5.488;2022-12-18T03:49:16;49.22;;;22.13;;
26536;SDS011;14204;51.262;5.488;2022-12-18T03:51:49;46.60;;;20.45;;
26536;SDS011;14204;51.262;5.488;2022-12-18T03:54:28;47.95;;;20.70;;
26536;SDS011;14204;51.262;5.488;2022-12-18T03:57:06;49.90;;;21.88;;
26536;SDS011;14204;51.262;5.488;2022-12-18T03:59:36;42.15;;;19.90;;
26536;SDS011;14204;51.262;5.488;2022-12-18T04:02:04;47.38;;;20.10;;
26536;SDS011;14204;51.262;5.488;2022-12-18T04:04:32;48.47;;;20.75;;
26536;SDS011;14204;51.262;5.488;2022-12-18T04:06:59;46.58;;;20.90;;
26536;SDS011;14204;51.262;5.488;2022-12-18T04:09:26;48.50;;;20.45;;
26536;SDS011;14204;51.262;5.488;2022-12-18T04:11:53;45.50;;;21.38;;
26536;SDS011;14204;51.262;5.488;2022-12-18T04:14:19;46.47;;;20.02;;
26536;SDS011;14204;51.262;5.488;2022-12-18T04:16:45;53.35;;;22.00;;
26536;SDS011;14204;51.262;5.488;2022-12-18T04:19:10;48.80;;;22.08;;
26536;SDS011;14204;51.262;5.488;2022-12-18T04:21:36;42.10;;;19.70;;
26536;SDS011;14204;51.262;5.488;2022-12-18T04:24:01;46.63;;;20.00;;
26536;SDS011;14204;51.262;5.488;2022-12-18T04:26:28;45.60;;;20.05;;
26536;SDS011;14204;51.262;5.488;2022-12-18T04:28:54;45.67;;;18.83;;
26536;SDS011;14204;51.262;5.488;2022-12-18T04:31:19;46.85;;;19.80;;
26536;SDS011;14204;51.262;5.488;2022-12-18T04:33:45;45.13;;;19.35;;
26536;SDS011;14204;51.262;5.488;2022-12-18T04:36:10;45.28;;;19.48;;
26536;SDS011;14204;51.262;5.488;2022-12-18T04:38:37;44.67;;;19.52;;
26536;SDS011;14204;51.262;5.488;2022-12-18T04:41:03;47.40;;;19.90;;
26536;SDS011;14204;51.262;5.488;2022-12-18T04:43:28;41.97;;;20.98;;
26536;SDS011;14204;51.262;5.488;2022-12-18T04:46:00;43.17;;;20.15;;
26536;SDS011;14204;51.262;5.488;2022-12-18T04:48:30;45.10;;;19.92;;
26536;SDS011;14204;51.262;5.488;2022-12-18T04:50:56;42.22;;;20.75;;
26536;SDS011;14204;51.262;5.488;2022-12-18T04:53:21;44.35;;;20.02;;
26536;SDS011;14204;51.262;5.488;2022-12-18T04:55:47;45.80;;;20.23;;
26536;SDS011;14204;51.262;5.488;2022-12-18T04:58:13;42.85;;;20.10;;
26536;SDS011;14204;51.262;5.488;2022-12-18T05:00:38;41.47;;;17.85;;
26536;SDS011;14204;51.262;5.488;2022-12-18T05:03:04;40.33;;;17.73;;
26536;SDS011;14204;51.262;5.488;2022-12-18T05:05:29;39.17;;;18.95;;
26536;SDS011;14204;51.262;5.488;2022-12-18T05:07:55;40.83;;;17.50;;
26536;SDS011;14204;51.262;5.488;2022-12-18T05:10:21;44.88;;;19.95;;
26536;SDS011;14204;51.262;5.488;2022-12-18T05:12:47;38.75;;;18.42;;
26536;SDS011;14204;51.262;5.488;2022-12-18T05:15:30;44.63;;;17.67;;
26536;SDS011;14204;51.262;5.488;2022-12-18T05:17:57;42.53;;;18.02;;
26536;SDS011;14204;51.262;5.488;2022-12-18T05:20:23;39.08;;;17.95;;
26536;SDS011;14204;51.262;5.488;2022-12-18T05:22:50;37.80;;;18.25;;
26536;SDS011;14204;51.262;5.488;2022-12-18T05:25:19;38.70;;;17.83;;
26536;SDS011;14204;51.262;5.488;2022-12-18T05:27:45;40.20;;;16.75;;
26536;SDS011;14204;51.262;5.488;2022-12-18T05:30:11;37.75;;;16.73;;
26536;SDS011;14204;51.262;5.488;2022-12-18T05:32:37;36.40;;;16.55;;
26536;SDS011;14204;51.262;5.488;2022-12-18T05:35:03;37.42;;;17.20;;
26536;SDS011;14204;51.262;5.488;2022-12-18T05:37:30;39.72;;;18.30;;
26536;SDS011;14204;51.262;5.488;2022-12-18T05:39:56;39.45;;;17.10;;
26536;SDS011;14204;51.262;5.488;2022-12-18T05:42:21;40.33;;;17.13;;
26536;SDS011;14204;51.262;5.488;2022-12-18T05:44:47;40.80;;;17.48;;
26536;SDS011;14204;51.262;5.488;2022-12-18T05:47:13;37.65;;;16.77;;
26536;SDS011;14204;51.262;5.488;2022-12-18T05:49:38;37.08;;;16.48;;
26536;SDS011;14204;51.262;5.488;2022-12-18T05:52:04;37.90;;;17.10;;
26536;SDS011;14204;51.262;5.488;2022-12-18T05:54:30;42.97;;;18.67;;
26536;SDS011;14204;51.262;5.488;2022-12-18T05:56:56;37.80;;;17.77;;
26536;SDS011;14204;51.262;5.488;2022-12-18T05:59:22;35.70;;;17.27;;
26536;SDS011;14204;51.262;5.488;2022-12-18T06:01:48;39.50;;;18.23;;
26536;SDS011;14204;51.262;5.488;2022-12-18T06:04:13;37.67;;;16.75;;
26536;SDS011;14204;51.262;5.488;2022-12-18T06:06:39;38.97;;;16.20;;
26536;SDS011;14204;51.262;5.488;2022-12-18T06:09:05;38.88;;;17.05;;
26536;SDS011;14204;51.262;5.488;2022-12-18T06:11:33;34.35;;;15.75;;
26536;SDS011;14204;51.262;5.488;2022-12-18T06:13:59;40.15;;;16.70;;
26536;SDS011;14204;51.262;5.488;2022-12-18T06:16:26;44.50;;;17.88;;
26536;SDS011;14204;51.262;5.488;2022-12-18T06:18:52;37.30;;;16.52;;
26536;SDS011;14204;51.262;5.488;2022-12-18T06:21:20;38.28;;;16.08;;
26536;SDS011;14204;51.262;5.488;2022-12-18T06:23:46;39.70;;;17.55;;
26536;SDS011;14204;51.262;5.488;2022-12-18T06:26:12;34.22;;;17.15;;
26536;SDS011;14204;51.262;5.488;2022-12-18T06:28:38;41.38;;;17.92;;
26536;SDS011;14204;51.262;5.488;2022-12-18T06:31:04;33.10;;;16.67;;
26536;SDS011;14204;51.262;5.488;2022-12-18T06:33:30;39.13;;;17.63;;
26536;SDS011;14204;51.262;5.488;2022-12-18T06:35:59;35.80;;;16.38;;
26536;SDS011;14204;51.262;5.488;2022-12-18T06:38:26;40.78;;;17.50;;
26536;SDS011;14204;51.262;5.488;2022-12-18T06:40:52;35.13;;;16.45;;
26536;SDS011;14204;51.262;5.488;2022-12-18T06:43:18;39.67;;;17.55;;
26536;SDS011;14204;51.262;5.488;2022-12-18T06:45:43;42.63;;;18.85;;
26536;SDS011;14204;51.262;5.488;2022-12-18T06:48:09;40.63;;;18.85;;
26536;SDS011;14204;51.262;5.488;2022-12-18T06:50:34;36.00;;;16.58;;
26536;SDS011;14204;51.262;5.488;2022-12-18T06:53:00;39.85;;;18.08;;
26536;SDS011;14204;51.262;5.488;2022-12-18T06:55:25;34.97;;;16.80;;
26536;SDS011;14204;51.262;5.488;2022-12-18T06:57:51;46.13;;;18.63;;
26536;SDS011;14204;51.262;5.488;2022-12-18T07:00:17;40.95;;;18.40;;
26536;SDS011;14204;51.262;5.488;2022-12-18T07:02:42;43.17;;;19.25;;
26536;SDS011;14204;51.262;5.488;2022-12-18T07:05:08;44.55;;;17.05;;
26536;SDS011;14204;51.262;5.488;2022-12-18T07:07:34;44.97;;;18.35;;
26536;SDS011;14204;51.262;5.488;2022-12-18T07:10:00;38.33;;;17.90;;
26536;SDS011;14204;51.262;5.488;2022-12-18T07:12:28;37.28;;;16.30;;
26536;SDS011;14204;51.262;5.488;2022-12-18T07:14:54;40.08;;;18.02;;
26536;SDS011;14204;51.262;5.488;2022-12-18T07:17:19;41.33;;;18.17;;
26536;SDS011;14204;51.262;5.488;2022-12-18T07:19:45;38.38;;;18.52;;
26536;SDS011;14204;51.262;5.488;2022-12-18T07:22:11;38.08;;;16.92;;
26536;SDS011;14204;51.262;5.488;2022-12-18T07:24:36;39.03;;;17.90;;
26536;SDS011;14204;51.262;5.488;2022-12-18T07:27:02;40.13;;;18.65;;
26536;SDS011;14204;51.262;5.488;2022-12-18T07:29:27;43.08;;;17.88;;
26536;SDS011;14204;51.262;5.488;2022-12-18T07:31:53;38.75;;;17.25;;
26536;SDS011;14204;51.262;5.488;2022-12-18T07:34:19;37.25;;;18.85;;
26536;SDS011;14204;51.262;5.488;2022-12-18T07:36:44;39.58;;;17.77;;
26536;SDS011;14204;51.262;5.488;2022-12-18T07:39:10;40.65;;;18.00;;
26536;SDS011;14204;51.262;5.488;2022-12-18T07:41:36;34.90;;;15.82;;
26536;SDS011;14204;51.262;5.488;2022-12-18T07:44:02;37.75;;;17.48;;
26536;SDS011;14204;51.262;5.488;2022-12-18T07:46:28;39.40;;;18.45;;
26536;SDS011;14204;51.262;5.488;2022-12-18T07:48:53;43.42;;;18.08;;
26536;SDS011;14204;51.262;5.488;2022-12-18T07:51:19;43.28;;;17.73;;
26536;SDS011;14204;51.262;5.488;2022-12-18T07:53:44;39.95;;;18.33;;
26536;SDS011;14204;51.262;5.488;2022-12-18T07:56:11;43.25;;;18.45;;
26536;SDS011;14204;51.262;5.488;2022-12-18T07:58:38;42.83;;;17.88;;
26536;SDS011;14204;51.262;5.488;2022-12-18T08:01:04;46.65;;;20.02;;
26536;SDS011;14204;51.262;5.488;2022-12-18T08:03:31;42.95;;;18.35;;
26536;SDS011;14204;51.262;5.488;2022-12-18T08:06:00;43.22;;;18.92;;
26536;SDS011;14204;51.262;5.488;2022-12-18T08:08:26;42.80;;;19.75;;
26536;SDS011;14204;51.262;5.488;2022-12-18T08:10:52;42.88;;;18.75;;
26536;SDS011;14204;51.262;5.488;2022-12-18T08:13:18;41.08;;;19.42;;
26536;SDS011;14204;51.262;5.488;2022-12-18T08:15:43;44.35;;;20.00;;
26536;SDS011;14204;51.262;5.488;2022-12-18T08:18:09;42.00;;;20.42;;
26536;SDS011;14204;51.262;5.488;2022-12-18T08:20:34;44.80;;;19.42;;
26536;SDS011;14204;51.262;5.488;2022-12-18T08:23:00;44.33;;;20.35;;
26536;SDS011;14204;51.262;5.488;2022-12-18T08:25:25;47.20;;;19.70;;
26536;SDS011;14204;51.262;5.488;2022-12-18T08:27:51;45.60;;;19.55;;
26536;SDS011;14204;51.262;5.488;2022-12-18T08:30:17;46.53;;;21.17;;
26536;SDS011;14204;51.262;5.488;2022-12-18T08:32:42;46.30;;;18.45;;
26536;SDS011;14204;51.262;5.488;2022-12-18T08:35:08;47.13;;;20.45;;
26536;SDS011;14204;51.262;5.488;2022-12-18T08:37:34;50.17;;;20.50;;
26536;SDS011;14204;51.262;5.488;2022-12-18T08:39:59;41.28;;;19.40;;
26536;SDS011;14204;51.262;5.488;2022-12-18T08:42:25;48.53;;;19.48;;
26536;SDS011;14204;51.262;5.488;2022-12-18T08:45:09;44.28;;;19.50;;
26536;SDS011;14204;51.262;5.488;2022-12-18T08:47:35;52.47;;;20.20;;
26536;SDS011;14204;51.262;5.488;2022-12-18T08:50:01;49.85;;;21.38;;
26536;SDS011;14204;51.262;5.488;2022-12-18T08:52:26;46.67;;;19.92;;
26536;SDS011;14204;51.262;5.488;2022-12-18T08:54:53;43.88;;;19.45;;
26536;SDS011;14204;51.262;5.488;2022-12-18T08:57:18;49.53;;;20.55;;
26536;SDS011;14204;51.262;5.488;2022-12-18T08:59:44;49.88;;;22.83;;
26536;SDS011;14204;51.262;5.488;2022-12-18T09:02:10;51.25;;;22.70;;
26536;SDS011;14204;51.262;5.488;2022-12-18T09:04:36;50.42;;;22.35;;
26536;SDS011;14204;51.262;5.488;2022-12-18T09:07:02;47.40;;;21.45;;
26536;SDS011;14204;51.262;5.488;2022-12-18T09:09:27;44.28;;;21.23;;
26536;SDS011;14204;51.262;5.488;2022-12-18T09:11:53;49.38;;;22.02;;
26536;SDS011;14204;51.262;5.488;2022-12-18T09:14:18;47.17;;;21.15;;
26536;SDS011;14204;51.262;5.488;2022-12-18T09:16:44;41.15;;;18.90;;
26536;SDS011;14204;51.262;5.488;2022-12-18T09:19:10;46.20;;;20.35;;
26536;SDS011;14204;51.262;5.488;2022-12-18T09:21:35;48.42;;;21.27;;
26536;SDS011;14204;51.262;5.488;2022-12-18T09:24:01;49.03;;;20.73;;
26536;SDS011;14204;51.262;5.488;2022-12-18T09:26:27;43.35;;;20.15;;
26536;SDS011;14204;51.262;5.488;2022-12-18T09:28:52;43.90;;;20.77;;
26536;SDS011;14204;51.262;5.488;2022-12-18T09:31:19;48.90;;;20.65;;
26536;SDS011;14204;51.262;5.488;2022-12-18T09:33:46;48.75;;;21.70;;
26536;SDS011;14204;51.262;5.488;2022-12-18T09:36:13;52.05;;;21.55;;
26536;SDS011;14204;51.262;5.488;2022-12-18T09:38:40;45.58;;;21.02;;
26536;SDS011;14204;51.262;5.488;2022-12-18T09:41:15;41.28;;;20.90;;
26536;SDS011;14204;51.262;5.488;2022-12-18T09:44:11;47.55;;;21.83;;
26536;SDS011;14204;51.262;5.488;2022-12-18T09:46:46;48.72;;;22.15;;
26536;SDS011;14204;51.262;5.488;2022-12-18T09:49:18;49.40;;;22.05;;
26536;SDS011;14204;51.262;5.488;2022-12-18T09:51:51;48.90;;;21.63;;
26536;SDS011;14204;51.262;5.488;2022-12-18T09:56:59;47.70;;;19.42;;
26536;SDS011;14204;51.262;5.488;2022-12-18T09:59:26;47.72;;;20.88;;
26536;SDS011;14204;51.262;5.488;2022-12-18T10:02:11;46.72;;;21.73;;
26536;SDS011;14204;51.262;5.488;2022-12-18T10:04:48;51.60;;;22.58;;
26536;SDS011;14204;51.262;5.488;2022-12-18T10:08:02;50.13;;;22.65;;
26536;SDS011;14204;51.262;5.488;2022-12-18T10:17:12;52.97;;;22.70;;
26536;SDS011;14204;51.262;5.488;2022-12-18T10:22:07;47.33;;;21.27;;
26536;SDS011;14204;51.262;5.488;2022-12-18T10:24:39;47.15;;;21.05;;
26536;SDS011;14204;51.262;5.488;2022-12-18T10:27:24;41.80;;;19.02;;
26536;SDS011;14204;51.262;5.488;2022-12-18T10:29:52;47.75;;;21.13;;
26536;SDS011;14204;51.262;5.488;2022-12-18T10:32:19;56.53;;;22.27;;
26536;SDS011;14204;51.262;5.488;2022-12-18T10:34:50;38.22;;;16.60;;
26536;SDS011;14204;51.262;5.488;2022-12-18T10:37:18;48.78;;;21.85;;
26536;SDS011;14204;51.262;5.488;2022-12-18T10:39:46;44.17;;;21.17;;
26536;SDS011;14204;51.262;5.488;2022-12-18T10:42:29;47.78;;;21.52;;
26536;SDS011;14204;51.262;5.488;2022-12-18T10:45:08;48.58;;;22.27;;
26536;SDS011;14204;51.262;5.488;2022-12-18T10:47:34;48.25;;;21.67;;
26536;SDS011;14204;51.262;5.488;2022-12-18T10:50:00;46.60;;;20.17;;
26536;SDS011;14204;51.262;5.488;2022-12-18T10:52:26;46.17;;;22.10;;
26536;SDS011;14204;51.262;5.488;2022-12-18T10:54:57;50.17;;;22.73;;
26536;SDS011;14204;51.262;5.488;2022-12-18T11:00:48;44.78;;;22.30;;
26536;SDS011;14204;51.262;5.488;2022-12-18T11:02:54;49.33;;;22.17;;
26536;SDS011;14204;51.262;5.488;2022-12-18T11:07:56;51.67;;;23.98;;
26536;SDS011;14204;51.262;5.488;2022-12-18T11:10:26;54.55;;;24.45;;
26536;SDS011;14204;51.262;5.488;2022-12-18T11:13:07;58.00;;;25.23;;
26536;SDS011;14204;51.262;5.488;2022-12-18T11:15:45;50.90;;;23.83;;
26536;SDS011;14204;51.262;5.488;2022-12-18T11:18:22;44.65;;;22.50;;
26536;SDS011;14204;51.262;5.488;2022-12-18T11:21:05;49.05;;;24.00;;
26536;SDS011;14204;51.262;5.488;2022-12-18T11:23:33;52.25;;;24.95;;
26536;SDS011;14204;51.262;5.488;2022-12-18T11:26:01;49.47;;;24.75;;
26536;SDS011;14204;51.262;5.488;2022-12-18T11:28:33;53.15;;;24.25;;
26536;SDS011;14204;51.262;5.488;2022-12-18T11:36:29;51.60;;;24.67;;
26536;SDS011;14204;51.262;5.488;2022-12-18T11:38:59;46.63;;;21.35;;
26536;SDS011;14204;51.262;5.488;2022-12-18T11:52:51;48.88;;;22.48;;
26536;SDS011;14204;51.262;5.488;2022-12-18T11:55:40;47.17;;;24.88;;
26536;SDS011;14204;51.262;5.488;2022-12-18T12:00:53;49.58;;;25.20;;
26536;SDS011;14204;51.262;5.488;2022-12-18T12:06:19;46.85;;;23.20;;
26536;SDS011;14204;51.262;5.488;2022-12-18T12:09:39;47.55;;;21.35;;
26536;SDS011;14204;51.262;5.488;2022-12-18T12:11:47;43.35;;;21.08;;
26536;SDS011;14204;51.262;5.488;2022-12-18T12:14:21;48.15;;;22.77;;
26536;SDS011;14204;51.262;5.488;2022-12-18T12:19:43;41.65;;;20.50;;
26536;SDS011;14204;51.262;5.488;2022-12-18T12:22:19;43.63;;;20.70;;
26536;SDS011;14204;51.262;5.488;2022-12-18T12:30:27;45.42;;;22.58;;
26536;SDS011;14204;51.262;5.488;2022-12-18T12:38:51;41.75;;;19.67;;
26536;SDS011;14204;51.262;5.488;2022-12-18T12:41:26;47.85;;;21.83;;
26536;SDS011;14204;51.262;5.488;2022-12-18T12:44:16;42.90;;;20.70;;
26536;SDS011;14204;51.262;5.488;2022-12-18T12:47:17;44.15;;;22.13;;
26536;SDS011;14204;51.262;5.488;2022-12-18T12:49:53;42.08;;;20.13;;
26536;SDS011;14204;51.262;5.488;2022-12-18T12:55:00;45.60;;;21.55;;
26536;SDS011;14204;51.262;5.488;2022-12-18T12:57:42;41.17;;;19.95;;
26536;SDS011;14204;51.262;5.488;2022-12-18T13:00:17;46.25;;;20.88;;
26536;SDS011;14204;51.262;5.488;2022-12-18T13:05:49;46.25;;;21.55;;
26536;SDS011;14204;51.262;5.488;2022-12-18T13:08:24;45.53;;;20.15;;
26536;SDS011;14204;51.262;5.488;2022-12-18T13:10:51;39.92;;;19.98;;
26536;SDS011;14204;51.262;5.488;2022-12-18T13:13:53;42.25;;;19.83;;
26536;SDS011;14204;51.262;5.488;2022-12-18T13:16:24;40.58;;;20.08;;
26536;SDS011;14204;51.262;5.488;2022-12-18T13:18:53;44.13;;;20.00;;
26536;SDS011;14204;51.262;5.488;2022-12-18T13:21:28;43.08;;;20.75;;
26536;SDS011;14204;51.262;5.488;2022-12-18T13:23:56;38.30;;;20.30;;
26536;SDS011;14204;51.262;5.488;2022-12-18T13:26:33;43.58;;;21.75;;
26536;SDS011;14204;51.262;5.488;2022-12-18T13:28:59;41.22;;;20.85;;
26536;SDS011;14204;51.262;5.488;2022-12-18T13:34:19;42.50;;;20.40;;
26536;SDS011;14204;51.262;5.488;2022-12-18T13:36:55;40.95;;;21.02;;
26536;SDS011;14204;51.262;5.488;2022-12-18T13:39:37;43.00;;;19.75;;
26536;SDS011;14204;51.262;5.488;2022-12-18T13:44:37;40.63;;;19.88;;
26536;SDS011;14204;51.262;5.488;2022-12-18T13:49:56;41.97;;;21.45;;
26536;SDS011;14204;51.262;5.488;2022-12-18T13:52:24;44.40;;;20.95;;
26536;SDS011;14204;51.262;5.488;2022-12-18T13:54:52;39.72;;;21.05;;
26536;SDS011;14204;51.262;5.488;2022-12-18T13:57:30;45.42;;;21.67;;
26536;SDS011;14204;51.262;5.488;2022-12-18T13:59:58;43.20;;;22.45;;
26536;SDS011;14204;51.262;5.488;2022-12-18T14:02:44;44.00;;;23.60;;
26536;SDS011;14204;51.262;5.488;2022-12-18T14:05:27;46.47;;;22.27;;
26536;SDS011;14204;51.262;5.488;2022-12-18T14:07:55;42.80;;;23.10;;
26536;SDS011;14204;51.262;5.488;2022-12-18T14:10:29;43.13;;;21.33;;
26536;SDS011;14204;51.262;5.488;2022-12-18T14:12:55;41.75;;;22.02;;
26536;SDS011;14204;51.262;5.488;2022-12-18T14:15:34;41.35;;;20.70;;
26536;SDS011;14204;51.262;5.488;2022-12-18T14:20:49;41.05;;;20.23;;
26536;SDS011;14204;51.262;5.488;2022-12-18T14:25:57;42.85;;;22.00;;
26536;SDS011;14204;51.262;5.488;2022-12-18T14:28:23;45.47;;;21.05;;
26536;SDS011;14204;51.262;5.488;2022-12-18T14:30:49;42.70;;;21.50;;
26536;SDS011;14204;51.262;5.488;2022-12-18T14:33:16;42.42;;;21.75;;
26536;SDS011;14204;51.262;5.488;2022-12-18T14:36:00;42.42;;;21.45;;
26536;SDS011;14204;51.262;5.488;2022-12-18T14:38:30;42.72;;;21.08;;
26536;SDS011;14204;51.262;5.488;2022-12-18T14:41:09;42.95;;;21.50;;
26536;SDS011;14204;51.262;5.488;2022-12-18T14:43:38;44.55;;;22.52;;
26536;SDS011;14204;51.262;5.488;2022-12-18T14:46:06;44.58;;;22.70;;
26536;SDS011;14204;51.262;5.488;2022-12-18T14:49:21;42.55;;;21.02;;
26536;SDS011;14204;51.262;5.488;2022-12-18T14:51:52;43.15;;;22.23;;
26536;SDS011;14204;51.262;5.488;2022-12-18T14:54:19;53.70;;;20.75;;
26536;SDS011;14204;51.262;5.488;2022-12-18T14:57:00;40.05;;;20.77;;
26536;SDS011;14204;51.262;5.488;2022-12-18T15:04:37;43.72;;;21.30;;
26536;SDS011;14204;51.262;5.488;2022-12-18T15:07:13;43.13;;;21.42;;
26536;SDS011;14204;51.262;5.488;2022-12-18T15:09:41;40.15;;;22.23;;
26536;SDS011;14204;51.262;5.488;2022-12-18T15:15:41;41.35;;;20.35;;
26536;SDS011;14204;51.262;5.488;2022-12-18T15:20:33;38.70;;;19.35;;
26536;SDS011;14204;51.262;5.488;2022-12-18T15:26:01;41.45;;;21.02;;
26536;SDS011;14204;51.262;5.488;2022-12-18T15:28:33;44.70;;;21.73;;
26536;SDS011;14204;51.262;5.488;2022-12-18T15:31:17;44.97;;;23.30;;
26536;SDS011;14204;51.262;5.488;2022-12-18T15:36:18;43.67;;;23.48;;
26536;SDS011;14204;51.262;5.488;2022-12-18T15:38:48;43.75;;;22.52;;
26536;SDS011;14204;51.262;5.488;2022-12-18T15:41:15;49.17;;;24.73;;
26536;SDS011;14204;51.262;5.488;2022-12-18T15:43:43;42.75;;;21.50;;
26536;SDS011;14204;51.262;5.488;2022-12-18T15:46:14;40.45;;;20.83;;
26536;SDS011;14204;51.262;5.488;2022-12-18T15:48:42;43.13;;;21.58;;
26536;SDS011;14204;51.262;5.488;2022-12-18T15:51:13;42.70;;;21.15;;
26536;SDS011;14204;51.262;5.488;2022-12-18T15:53:42;38.75;;;20.30;;
26536;SDS011;14204;51.262;5.488;2022-12-18T15:56:11;41.03;;;20.88;;
26536;SDS011;14204;51.262;5.488;2022-12-18T15:58:56;46.42;;;22.35;;
26536;SDS011;14204;51.262;5.488;2022-12-18T16:01:23;43.70;;;21.50;;
26536;SDS011;14204;51.262;5.488;2022-12-18T16:03:50;41.33;;;20.38;;
26536;SDS011;14204;51.262;5.488;2022-12-18T16:06:16;42.85;;;19.98;;
26536;SDS011;14204;51.262;5.488;2022-12-18T16:08:41;42.92;;;20.73;;
26536;SDS011;14204;51.262;5.488;2022-12-18T16:11:26;44.78;;;21.77;;
26536;SDS011;14204;51.262;5.488;2022-12-18T16:17:02;40.13;;;21.13;;
26536;SDS011;14204;51.262;5.488;2022-12-18T16:19:30;44.75;;;20.35;;
26536;SDS011;14204;51.262;5.488;2022-12-18T16:21:56;38.88;;;20.30;;
26536;SDS011;14204;51.262;5.488;2022-12-18T16:24:24;46.05;;;21.77;;
26536;SDS011;14204;51.262;5.488;2022-12-18T16:26:51;46.20;;;22.13;;
26536;SDS011;14204;51.262;5.488;2022-12-18T16:29:18;43.53;;;21.17;;
26536;SDS011;14204;51.262;5.488;2022-12-18T16:31:45;48.83;;;21.40;;